Main page
METAR-TAF:

METAR-TAF

Airports :

Kärdla Airport

Kärdla, Estonia

latitude: 58-59N, longitude: 022-49E, elevation: 5 m

Current weather observation

The report was made 51 minutes ago, at 14:50 UTC
Wind 3 kt from the East
Temperature 16°C
Humidity 68%
Pressure 1013 hPa
Visibility 10 km or more
light drizzle

METAR: EEKA 201450Z 09003KT 9999 -DZ NSC 16/10 Q1013

Time: 18:41 (15:41 UTC)

Forecast

The report was made 3 hours and 41 minutes ago, at 12:00 UTC
Forecast valid from 20 at 13 UTC to 20 at 19 UTC
Wind 10 kt from the Southeast
Visibility 10 km or more
no clouds below 1500 m and no cumulonimbus
Probability 40% :
Temporary
from 20 at 13 UTC to 20 at 16 UTC
Scattered clouds at a height of 3000 ft, Cumulonimbus.

TAF: EEKA 201200Z 2013/2019 14010KT CAVOK PROB40 TEMPO 2013/2016 SCT030CB

Weather observations and forecasts of more than 4000 airports (METAR and TAF reports).

The available stations are represented by yellow and red dots on the map.

Hover mouse over dot to see the name of the station.

Then click to see weather observations and forecasts.

To change the map : click on the green buttons with a black cross to zoom in, on the green button with a dash to zoom out, or on the green arrows for adjacent maps.


METAR-TAF: